Terminal Aerodrome Forecast
Issued by NWS

Home | Current Version | Previous Version | Graphics & Text | Print | Product List | Glossary On
Versions: 1 2 3 4 5 6 7 8 9 10 11 12 13 14 15 16 17
000
FTUS43 KBIS 180400 AAA
TAFMOT
TAF AMD
KMOT 180400Z 1804/1824 25018G26KT P6SM FEW250 WS020/30045KT
     FM180700 25013KT P6SM FEW250
     FM181300 24010KT P6SM SCT250=

USA.gov is the U.S. government's official web portal to all federal, state and local government web resources and services.